createdAt,value
2023-02-08T00:01:27.354Z,13.63
2023-02-08T00:03:58.475Z,13.50
2023-02-08T00:06:27.343Z,15.50
2023-02-08T00:08:56.150Z,17.97
2023-02-08T00:11:25.822Z,15.70
2023-02-08T00:13:54.744Z,15.47
2023-02-08T00:16:23.855Z,17.00
2023-02-08T00:18:53.438Z,13.53
2023-02-08T00:21:22.076Z,14.60
2023-02-08T00:23:50.328Z,15.60
2023-02-08T00:26:18.899Z,13.37
2023-02-08T00:28:47.675Z,12.50
2023-02-08T00:31:16.079Z,14.10
2023-02-08T00:33:45.230Z,11.90
2023-02-08T00:36:15.612Z,14.33
2023-02-08T00:38:43.807Z,14.20
2023-02-08T00:41:12.296Z,12.00
2023-02-08T00:43:40.998Z,12.77
2023-02-08T00:46:09.556Z,15.97
2023-02-08T00:48:38.280Z,16.43
2023-02-08T00:51:08.794Z,15.03
2023-02-08T00:53:40.883Z,11.77
2023-02-08T00:56:10.578Z,12.03
2023-02-08T00:58:39.311Z,12.40
2023-02-08T01:01:09.328Z,11.63
2023-02-08T01:03:39.606Z,11.90
2023-02-08T01:06:11.032Z,12.80
2023-02-08T01:08:40.568Z,11.23
2023-02-08T01:11:11.231Z,11.93
2023-02-08T01:13:41.704Z,11.47
2023-02-08T01:16:15.406Z,15.07
2023-02-08T01:18:47.558Z,11.43
2023-02-08T01:21:17.447Z,13.97
2023-02-08T01:23:47.964Z,15.53
2023-02-08T01:26:18.169Z,16.53
2023-02-08T01:28:46.679Z,14.17
2023-02-08T01:31:17.086Z,13.40
2023-02-08T01:33:46.225Z,13.57
2023-02-08T01:36:15.000Z,14.87
2023-02-08T01:38:44.139Z,13.33
2023-02-08T01:41:18.784Z,13.87
2023-02-08T01:44:05.850Z,13.07
2023-02-08T01:46:35.280Z,14.57
2023-02-08T01:49:12.541Z,17.50
2023-02-08T01:51:45.647Z,18.63
2023-02-08T01:54:19.760Z,16.83
2023-02-08T01:56:50.720Z,17.00
2023-02-08T01:59:22.506Z,18.17
2023-02-08T02:01:53.732Z,23.63
2023-02-08T02:04:22.666Z,20.77
2023-02-08T02:06:53.676Z,15.87
2023-02-08T02:09:27.627Z,18.53
2023-02-08T02:12:00.159Z,21.23
2023-02-08T02:14:28.963Z,24.30
2023-02-08T02:17:00.862Z,20.77
2023-02-08T02:19:38.883Z,14.57
2023-02-08T02:22:22.164Z,16.93
2023-02-08T02:25:20.931Z,20.93
2023-02-08T02:28:19.454Z,20.83
2023-02-08T02:31:18.700Z,16.50
2023-02-08T02:33:58.400Z,19.90
2023-02-08T02:36:34.449Z,14.57
2023-02-08T02:39:12.561Z,16.33
2023-02-08T02:42:05.870Z,15.40
2023-02-08T02:44:43.081Z,17.07
2023-02-08T02:47:20.675Z,17.27
2023-02-08T02:49:55.104Z,20.50
2023-02-08T02:52:33.524Z,14.80
2023-02-08T02:55:08.557Z,13.97
2023-02-08T02:57:38.609Z,15.00
2023-02-08T03:00:10.970Z,17.27
2023-02-08T03:02:39.404Z,17.60
2023-02-08T03:05:12.278Z,18.07
2023-02-08T03:08:09.584Z,15.43
2023-02-08T03:10:58.653Z,17.13
2023-02-08T03:13:35.911Z,14.53
2023-02-08T03:16:17.437Z,17.70
2023-02-08T03:18:59.385Z,15.70
2023-02-08T03:21:39.083Z,17.57
2023-02-08T03:24:17.420Z,15.07
2023-02-08T03:26:54.122Z,23.03
2023-02-08T03:29:32.925Z,18.97
2023-02-08T03:32:05.205Z,18.23
2023-02-08T03:34:43.359Z,18.73
2023-02-08T03:37:17.860Z,17.97
2023-02-08T03:39:48.058Z,21.37
2023-02-08T03:42:19.905Z,29.50
2023-02-08T03:44:54.349Z,28.13
2023-02-08T03:47:25.513Z,32.67
2023-02-08T03:49:56.125Z,35.70
2023-02-08T03:52:27.663Z,32.47
2023-02-08T03:54:58.254Z,29.23
2023-02-08T03:57:30.162Z,27.97
2023-02-08T04:00:02.159Z,23.63
2023-02-08T04:02:34.184Z,25.23
2023-02-08T04:05:03.399Z,25.20
2023-02-08T04:07:33.173Z,23.00
2023-02-08T04:10:01.369Z,22.30
2023-02-08T04:12:29.488Z,21.60
2023-02-08T04:14:57.690Z,19.43
2023-02-08T04:17:25.882Z,21.83
2023-02-08T04:19:54.939Z,23.50
2023-02-08T04:22:23.201Z,23.43
2023-02-08T04:24:55.749Z,23.07
2023-02-08T04:27:24.708Z,22.47
2023-02-08T04:29:52.938Z,22.50
2023-02-08T04:32:21.550Z,20.50
2023-02-08T04:34:49.802Z,20.43
2023-02-08T04:37:18.082Z,18.87
2023-02-08T04:39:50.304Z,17.70
2023-02-08T04:42:20.412Z,19.40
2023-02-08T04:44:48.878Z,18.37
2023-02-08T04:47:17.270Z,22.70
2023-02-08T04:49:45.860Z,19.80
2023-02-08T04:52:14.028Z,17.83
2023-02-08T04:54:42.351Z,19.60
2023-02-08T04:57:13.376Z,21.80
2023-02-08T04:59:43.079Z,19.73
2023-02-08T05:02:11.286Z,23.10
2023-02-08T05:04:39.997Z,24.30
2023-02-08T05:07:08.268Z,21.00
2023-02-08T05:09:36.547Z,24.00
2023-02-08T05:12:05.987Z,23.47
2023-02-08T05:14:34.311Z,20.00
2023-02-08T05:17:04.328Z,28.00
2023-02-08T05:19:33.176Z,28.93
2023-02-08T05:22:01.986Z,26.73
2023-02-08T05:24:30.351Z,24.70
2023-02-08T05:26:58.883Z,27.37
2023-02-08T05:29:27.920Z,26.40
2023-02-08T05:31:56.486Z,27.47
2023-02-08T05:34:26.297Z,26.57
2023-02-08T05:36:55.155Z,28.43
2023-02-08T05:39:23.982Z,31.10
2023-02-08T05:41:52.087Z,27.50
2023-02-08T05:44:22.999Z,29.80
2023-02-08T05:46:51.307Z,32.63
2023-02-08T05:49:19.817Z,28.53
2023-02-08T05:51:50.276Z,28.23
2023-02-08T05:54:19.584Z,29.57
2023-02-08T05:56:48.268Z,26.23
2023-02-08T05:59:16.748Z,28.20
2023-02-08T06:01:44.917Z,28.30
2023-02-08T06:04:15.856Z,30.50
2023-02-08T06:06:44.980Z,29.07
2023-02-08T06:09:14.548Z,29.90
2023-02-08T06:11:42.893Z,26.40
2023-02-08T06:14:11.233Z,25.40
2023-02-08T06:16:40.139Z,26.10
2023-02-08T06:19:08.349Z,22.83
2023-02-08T06:21:37.480Z,27.73
2023-02-08T06:24:06.754Z,28.17
2023-02-08T06:26:36.290Z,31.03
2023-02-08T06:29:05.376Z,25.77
2023-02-08T06:31:34.197Z,26.03
2023-02-08T06:34:02.731Z,24.90
2023-02-08T06:36:30.872Z,22.70
2023-02-08T06:39:00.828Z,25.27
2023-02-08T06:41:32.138Z,29.50
2023-02-08T06:44:02.584Z,26.43
2023-02-08T06:46:30.891Z,30.23
2023-02-08T06:49:00.400Z,28.17
2023-02-08T06:51:28.836Z,26.00
2023-02-08T06:53:57.362Z,30.30
2023-02-08T06:56:25.584Z,33.70
2023-02-08T06:58:53.747Z,32.23
2023-02-08T07:01:23.263Z,29.93
2023-02-08T07:03:51.514Z,33.37
2023-02-08T07:06:21.035Z,32.10
2023-02-08T07:08:49.547Z,31.37
2023-02-08T07:11:20.657Z,32.93
2023-02-08T07:13:49.574Z,29.07
2023-02-08T07:16:18.533Z,28.67
2023-02-08T07:18:48.808Z,26.20
2023-02-08T07:21:18.312Z,25.53
2023-02-08T07:23:47.453Z,32.33
2023-02-08T07:26:16.018Z,27.67
2023-02-08T07:28:45.236Z,28.57
2023-02-08T07:31:16.263Z,27.57
2023-02-08T07:33:45.321Z,28.40
2023-02-08T07:36:15.417Z,28.43
2023-02-08T07:38:43.685Z,27.70
2023-02-08T07:41:17.102Z,27.53
2023-02-08T07:43:45.574Z,27.17
2023-02-08T07:46:17.146Z,30.50
2023-02-08T07:48:46.150Z,33.03
2023-02-08T07:51:15.709Z,26.97
2023-02-08T07:53:43.903Z,32.83
2023-02-08T07:56:12.377Z,33.53
2023-02-08T07:58:41.388Z,34.10
2023-02-08T08:01:21.529Z,37.20
2023-02-08T08:03:51.389Z,34.03
2023-02-08T08:06:22.221Z,37.10
2023-02-08T08:08:50.793Z,32.87
2023-02-08T08:11:20.452Z,30.43
2023-02-08T08:13:49.207Z,30.20
2023-02-08T08:16:20.657Z,34.53
2023-02-08T08:18:49.220Z,31.13
2023-02-08T08:21:18.166Z,31.27
2023-02-08T08:23:48.252Z,29.40
2023-02-08T08:26:18.642Z,32.83
2023-02-08T08:28:49.898Z,28.83
2023-02-08T08:31:21.788Z,34.90
2023-02-08T08:33:50.724Z,33.10
2023-02-08T08:36:19.317Z,32.57
2023-02-08T08:38:49.772Z,28.10
2023-02-08T08:41:18.984Z,28.07
2023-02-08T08:43:47.207Z,27.67
2023-02-08T08:46:16.736Z,28.30
2023-02-08T08:48:46.138Z,26.07
2023-02-08T08:51:15.800Z,27.63
2023-02-08T08:53:44.255Z,26.20
2023-02-08T08:56:14.234Z,28.57
2023-02-08T08:58:43.525Z,31.87
2023-02-08T09:01:13.955Z,32.50
2023-02-08T09:03:42.610Z,27.77
2023-02-08T09:06:10.849Z,31.98
2023-02-08T09:08:39.185Z,28.13
2023-02-08T09:11:09.204Z,29.58
2023-02-08T09:13:39.873Z,29.52
2023-02-08T09:16:10.071Z,26.90
2023-02-08T09:18:39.077Z,32.15
2023-02-08T09:21:08.754Z,33.80
2023-02-08T09:23:37.606Z,30.25
2023-02-08T09:26:07.566Z,23.80
2023-02-08T09:28:36.628Z,21.30
2023-02-08T09:31:10.915Z,23.42
2023-02-08T09:33:39.752Z,17.70
2023-02-08T09:36:09.129Z,22.57
2023-02-08T09:38:37.855Z,19.27
2023-02-08T09:41:20.608Z,25.43
2023-02-08T09:43:55.501Z,21.83
2023-02-08T09:46:28.891Z,27.13
2023-02-08T09:49:01.919Z,21.92
2023-02-08T09:51:33.755Z,21.58
2023-02-08T09:54:08.691Z,21.93
2023-02-08T09:56:41.597Z,18.33
2023-02-08T09:59:17.616Z,18.73
2023-02-08T10:01:49.362Z,20.07
2023-02-08T10:04:27.063Z,21.93
2023-02-08T10:06:55.540Z,25.57
2023-02-08T10:09:29.659Z,24.98
2023-02-08T10:12:11.381Z,21.67
2023-02-08T10:14:56.714Z,21.98
2023-02-08T10:17:43.461Z,20.75
2023-02-08T10:20:21.850Z,22.35
2023-02-08T10:23:01.256Z,21.77
2023-02-08T10:25:55.368Z,23.42
2023-02-08T10:28:58.976Z,23.38
2023-02-08T10:31:36.441Z,22.23
2023-02-08T10:34:20.044Z,24.70
2023-02-08T10:36:48.339Z,20.35
2023-02-08T10:39:19.259Z,25.35
2023-02-08T10:41:48.123Z,22.88
2023-02-08T10:44:28.040Z,22.70
2023-02-08T10:47:07.007Z,20.83
2023-02-08T10:49:43.557Z,19.17
2023-02-08T10:52:12.357Z,22.52
2023-02-08T10:54:40.862Z,20.30
2023-02-08T10:57:18.479Z,19.67
2023-02-08T10:59:52.850Z,17.92
2023-02-08T11:02:27.110Z,19.67
2023-02-08T11:05:01.899Z,20.48
2023-02-08T11:07:31.481Z,22.95
2023-02-08T11:10:17.579Z,21.08
2023-02-08T11:12:56.265Z,19.27
2023-02-08T11:15:27.277Z,24.00
2023-02-08T11:17:59.789Z,16.70
2023-02-08T11:20:34.709Z,17.80
2023-02-08T11:23:03.547Z,13.43
2023-02-08T11:25:36.113Z,12.30
2023-02-08T11:28:04.840Z,15.75
2023-02-08T11:30:33.890Z,14.60
2023-02-08T11:33:20.465Z,18.83
2023-02-08T11:36:04.068Z,15.38
2023-02-08T11:38:35.174Z,13.80
2023-02-08T11:41:06.129Z,12.48
2023-02-08T11:43:36.415Z,16.02
2023-02-08T11:46:06.629Z,16.75
2023-02-08T11:48:47.797Z,11.57
2023-02-08T11:51:29.611Z,16.58
2023-02-08T11:54:00.483Z,14.65
2023-02-08T11:56:30.408Z,11.70
2023-02-08T11:59:02.262Z,13.60
2023-02-08T12:01:33.198Z,13.52
2023-02-08T12:04:04.123Z,15.70
2023-02-08T12:06:56.037Z,13.10
2023-02-08T12:09:56.602Z,11.50
2023-02-08T12:12:39.611Z,13.82
2023-02-08T12:15:19.811Z,11.05
2023-02-08T12:18:08.066Z,10.38
2023-02-08T12:20:42.325Z,8.35
2023-02-08T12:23:47.427Z,9.35
2023-02-08T12:26:21.200Z,14.85
2023-02-08T12:29:12.575Z,10.32
2023-02-08T12:31:53.825Z,10.63
2023-02-08T12:34:27.917Z,9.70
2023-02-08T12:37:36.954Z,9.85
2023-02-08T12:40:37.332Z,12.57
2023-02-08T12:43:16.404Z,12.55
2023-02-08T12:46:23.956Z,12.43
2023-02-08T12:49:06.709Z,12.15
2023-02-08T12:51:43.792Z,10.60
2023-02-08T12:54:17.687Z,10.43
2023-02-08T12:57:01.590Z,10.77
2023-02-08T12:59:36.821Z,11.63
2023-02-08T13:02:19.135Z,11.43
2023-02-08T13:04:50.789Z,13.02
2023-02-08T13:07:22.376Z,8.40
2023-02-08T13:09:57.382Z,12.07
2023-02-08T13:12:30.617Z,8.70
2023-02-08T13:15:03.498Z,9.50
2023-02-08T13:17:43.231Z,9.43
2023-02-08T13:20:32.654Z,10.02
2023-02-08T13:23:04.718Z,8.98
2023-02-08T13:25:35.622Z,10.25
2023-02-08T13:28:09.602Z,12.07
2023-02-08T13:30:40.710Z,9.68
2023-02-08T13:33:16.494Z,12.85
2023-02-08T13:35:50.094Z,10.77
2023-02-08T13:38:27.802Z,14.07
2023-02-08T13:41:21.635Z,18.50
2023-02-08T13:44:08.130Z,12.85
2023-02-08T13:46:39.660Z,16.45
2023-02-08T13:49:07.938Z,14.35
2023-02-08T13:52:03.439Z,14.95
2023-02-08T13:54:32.255Z,13.80
2023-02-08T13:57:03.491Z,14.02
2023-02-08T13:59:38.263Z,12.52
2023-02-08T14:02:28.256Z,18.92
2023-02-08T14:05:19.966Z,14.00
2023-02-08T14:07:50.016Z,14.02
2023-02-08T14:10:36.857Z,13.52
2023-02-08T14:13:09.510Z,17.98
2023-02-08T14:15:40.999Z,14.57
2023-02-08T14:18:26.891Z,18.13
2023-02-08T14:21:07.396Z,16.38
2023-02-08T14:23:40.693Z,19.38
2023-02-08T14:26:16.774Z,14.30
2023-02-08T14:28:48.780Z,13.50
2023-02-08T14:31:22.095Z,15.20
2023-02-08T14:33:54.968Z,15.75
2023-02-08T14:36:33.624Z,19.20
2023-02-08T14:39:24.308Z,17.30
2023-02-08T14:41:57.209Z,17.20
2023-02-08T14:45:03.611Z,14.70
2023-02-08T14:48:20.851Z,16.10
2023-02-08T14:51:02.931Z,13.82
2023-02-08T14:53:37.180Z,17.88
2023-02-08T14:56:15.690Z,21.58
2023-02-08T14:58:46.699Z,18.30
2023-02-08T15:01:27.040Z,16.23
2023-02-08T15:04:03.074Z,15.95
2023-02-08T15:07:03.556Z,17.30
2023-02-08T15:09:36.772Z,20.38
2023-02-08T15:12:08.519Z,16.80
2023-02-08T15:14:38.441Z,16.92
2023-02-08T15:17:08.171Z,20.05
2023-02-08T15:19:40.224Z,19.30
2023-02-08T15:22:19.375Z,17.48
2023-02-08T15:24:55.253Z,21.83
2023-02-08T15:27:25.898Z,15.27
2023-02-08T15:29:55.010Z,16.00
2023-02-08T15:32:25.295Z,24.60
2023-02-08T15:34:57.370Z,16.58
2023-02-08T15:37:25.926Z,18.25
2023-02-08T15:39:57.004Z,18.15
2023-02-08T15:42:28.836Z,19.90
2023-02-08T15:44:57.566Z,19.15
2023-02-08T15:47:29.542Z,15.23
2023-02-08T15:50:03.436Z,18.73
2023-02-08T15:52:34.540Z,22.35
2023-02-08T15:55:03.023Z,22.88
2023-02-08T15:57:37.505Z,20.58
2023-02-08T16:00:14.184Z,23.02
2023-02-08T16:02:43.859Z,21.90
2023-02-08T16:05:21.223Z,20.27
2023-02-08T16:07:51.765Z,21.23
2023-02-08T16:10:27.236Z,19.88
2023-02-08T16:12:58.504Z,21.98
2023-02-08T16:15:41.265Z,23.33
2023-02-08T16:18:40.631Z,20.80
2023-02-08T16:21:27.390Z,23.60
2023-02-08T16:23:57.602Z,26.17
2023-02-08T16:26:29.055Z,23.80
2023-02-08T16:28:59.926Z,26.38
2023-02-08T16:31:31.114Z,23.75
2023-02-08T16:34:04.318Z,22.48
2023-02-08T16:36:43.810Z,23.60
2023-02-08T16:39:39.162Z,21.33
2023-02-08T16:42:21.126Z,28.02
2023-02-08T16:45:18.086Z,31.50
2023-02-08T16:47:52.611Z,21.85
2023-02-08T16:50:22.885Z,21.90
2023-02-08T16:52:54.952Z,28.30
2023-02-08T16:55:26.045Z,25.75
2023-02-08T16:57:56.460Z,35.55
2023-02-08T17:00:27.544Z,37.70
2023-02-08T17:02:56.607Z,34.10
2023-02-08T17:05:27.016Z,33.77
2023-02-08T17:07:57.593Z,39.47
2023-02-08T17:10:30.033Z,34.13
2023-02-08T17:13:17.053Z,33.07
2023-02-08T17:15:47.146Z,32.70
2023-02-08T17:18:16.769Z,31.47
2023-02-08T17:20:45.849Z,29.17
2023-02-08T17:23:16.457Z,24.80
2023-02-08T17:25:45.454Z,25.43
2023-02-08T17:28:18.831Z,27.85
2023-02-08T17:30:49.073Z,24.13
2023-02-08T17:33:21.729Z,25.47
2023-02-08T17:35:52.454Z,26.03
2023-02-08T17:38:22.878Z,26.17
2023-02-08T17:40:51.323Z,27.13
2023-02-08T17:43:19.629Z,28.80
2023-02-08T17:45:47.960Z,22.53
2023-02-08T17:48:16.684Z,21.27
2023-02-08T17:50:50.871Z,23.57
2023-02-08T17:53:21.628Z,27.00
2023-02-08T17:55:49.988Z,23.83
2023-02-08T17:58:18.743Z,19.73
2023-02-08T18:00:47.252Z,23.37
2023-02-08T18:03:17.261Z,25.67
2023-02-08T18:05:47.399Z,22.60
2023-02-08T18:08:15.531Z,26.40
2023-02-08T18:10:45.667Z,24.37
2023-02-08T18:13:13.917Z,30.40
2023-02-08T18:15:42.514Z,26.97
2023-02-08T18:18:13.717Z,27.90
2023-02-08T18:20:44.795Z,24.20
2023-02-08T18:23:15.414Z,25.13
2023-02-08T18:25:45.553Z,27.10
2023-02-08T18:28:16.455Z,24.97
2023-02-08T18:30:44.959Z,23.17
2023-02-08T18:33:13.718Z,19.10
2023-02-08T18:35:49.104Z,18.77
2023-02-08T18:38:17.517Z,26.70
2023-02-08T18:40:50.048Z,24.23
2023-02-08T18:43:20.228Z,23.63
2023-02-08T18:46:02.195Z,28.10
2023-02-08T18:48:31.210Z,23.67
2023-02-08T18:51:00.281Z,26.93
2023-02-08T18:53:32.319Z,27.07
2023-02-08T18:56:04.472Z,28.17
2023-02-08T18:58:33.554Z,27.40
2023-02-08T19:01:08.067Z,27.10
2023-02-08T19:03:36.805Z,32.03
2023-02-08T19:06:06.933Z,26.60
2023-02-08T19:08:37.453Z,28.67
2023-02-08T19:11:07.543Z,29.83
2023-02-08T19:13:35.693Z,30.27
2023-02-08T19:16:06.593Z,29.10
2023-02-08T19:18:35.738Z,29.50
2023-02-08T19:21:11.688Z,28.70
2023-02-08T19:23:40.688Z,29.67
2023-02-08T19:26:15.840Z,30.90
2023-02-08T19:28:47.013Z,31.70
2023-02-08T19:31:18.739Z,30.23
2023-02-08T19:33:49.746Z,31.83
2023-02-08T19:36:19.847Z,33.47
2023-02-08T19:38:49.413Z,29.13
2023-02-08T19:41:21.105Z,33.87
2023-02-08T19:43:50.045Z,32.63
2023-02-08T19:46:22.100Z,36.73
2023-02-08T19:48:51.045Z,37.37
2023-02-08T19:51:20.620Z,34.90
2023-02-08T19:53:49.168Z,35.27
2023-02-08T19:56:19.864Z,30.73
2023-02-08T19:58:49.727Z,31.27
2023-02-08T20:01:20.280Z,38.00
2023-02-08T20:03:49.925Z,34.50
2023-02-08T20:06:20.589Z,33.30
2023-02-08T20:08:50.677Z,36.33
2023-02-08T20:11:22.650Z,31.33
2023-02-08T20:13:51.626Z,32.87
2023-02-08T20:16:20.738Z,37.40
2023-02-08T20:18:49.346Z,34.70
2023-02-08T20:21:18.241Z,41.20
2023-02-08T20:23:48.386Z,36.13
2023-02-08T20:26:18.963Z,39.83
2023-02-08T20:28:51.228Z,37.23
2023-02-08T20:31:21.502Z,36.13
2023-02-08T20:33:50.392Z,35.60
2023-02-08T20:36:21.230Z,33.13
2023-02-08T20:38:51.535Z,33.80
2023-02-08T20:41:21.503Z,42.23
2023-02-08T20:43:52.430Z,42.77
2023-02-08T20:46:23.315Z,35.43
2023-02-08T20:48:53.627Z,43.33
2023-02-08T20:51:24.163Z,35.07
2023-02-08T20:53:52.881Z,32.33
2023-02-08T20:56:23.821Z,34.57
2023-02-08T20:58:55.267Z,34.23
2023-02-08T21:01:26.124Z,40.50
2023-02-08T21:03:55.249Z,38.83
2023-02-08T21:06:26.455Z,39.27
2023-02-08T21:08:56.922Z,34.80
2023-02-08T21:11:29.924Z,32.83
2023-02-08T21:14:04.088Z,34.77
2023-02-08T21:16:32.932Z,35.87
2023-02-08T21:19:01.687Z,36.17
2023-02-08T21:21:29.932Z,42.70
2023-02-08T21:23:58.825Z,35.57
2023-02-08T21:26:27.928Z,43.87
2023-02-08T21:28:58.658Z,38.20
2023-02-08T21:31:28.539Z,35.37
2023-02-08T21:33:58.595Z,41.27
2023-02-08T21:36:26.927Z,34.50
2023-02-08T21:38:55.904Z,35.37
2023-02-08T21:41:26.575Z,43.67
2023-02-08T21:43:57.769Z,40.03
2023-02-08T21:46:33.081Z,38.77
2023-02-08T21:49:19.051Z,35.13
2023-02-08T21:52:05.248Z,40.70
2023-02-08T21:54:45.741Z,38.20
2023-02-08T21:57:18.606Z,41.43
2023-02-08T21:59:47.339Z,38.83
2023-02-08T22:02:24.506Z,40.87
2023-02-08T22:05:11.479Z,45.97
2023-02-08T22:07:45.243Z,34.43
2023-02-08T22:10:15.541Z,40.33
2023-02-08T22:12:44.378Z,33.00
2023-02-08T22:15:15.687Z,39.50
2023-02-08T22:17:45.907Z,37.03
2023-02-08T22:20:15.670Z,35.10
2023-02-08T22:22:45.441Z,32.57
2023-02-08T22:25:14.689Z,31.60
2023-02-08T22:27:42.893Z,36.20
2023-02-08T22:30:13.731Z,36.30
2023-02-08T22:32:42.328Z,30.43
2023-02-08T22:35:13.339Z,32.13
2023-02-08T22:37:41.559Z,31.67
2023-02-08T22:40:11.753Z,34.90
2023-02-08T22:42:40.532Z,29.13
2023-02-08T22:45:09.532Z,26.27
2023-02-08T22:47:37.986Z,25.80
2023-02-08T22:50:07.902Z,21.87
2023-02-08T22:52:37.972Z,24.83
2023-02-08T22:55:07.653Z,25.73
2023-02-08T22:57:36.829Z,29.10
2023-02-08T23:00:06.873Z,26.87
2023-02-08T23:02:35.249Z,26.03
2023-02-08T23:05:06.568Z,23.87
2023-02-08T23:07:34.826Z,24.53
2023-02-08T23:10:04.622Z,26.63
2023-02-08T23:12:33.650Z,27.07
2023-02-08T23:15:02.261Z,24.73
2023-02-08T23:17:30.469Z,34.67
2023-02-08T23:19:58.710Z,34.00
2023-02-08T23:22:26.867Z,32.70
2023-02-08T23:24:55.769Z,32.00
2023-02-08T23:27:25.728Z,33.67
2023-02-08T23:29:54.101Z,37.80
2023-02-08T23:32:22.309Z,38.47
2023-02-08T23:34:51.663Z,40.03
2023-02-08T23:37:19.788Z,35.13
2023-02-08T23:39:49.232Z,40.97
2023-02-08T23:42:26.317Z,36.93
2023-02-08T23:44:56.844Z,37.13
2023-02-08T23:47:26.926Z,37.50
2023-02-08T23:49:55.676Z,41.17
2023-02-08T23:52:23.931Z,36.70
2023-02-08T23:54:55.630Z,35.63
2023-02-08T23:57:24.514Z,37.00
2023-02-08T23:59:52.629Z,34.20
